sensor_id;sensor_type;location;lat;lon;timestamp;P1;durP1;ratioP1;P2;durP2;ratioP2
57730;SDS011;43570;47.476;19.040;2022-12-18T00:01:35;46.90;;;32.13;;
57730;SDS011;43570;47.476;19.040;2022-12-18T00:04:02;48.15;;;32.72;;
57730;SDS011;43570;47.476;19.040;2022-12-18T00:06:29;45.90;;;32.42;;
57730;SDS011;43570;47.476;19.040;2022-12-18T00:08:55;44.72;;;31.90;;
57730;SDS011;43570;47.476;19.040;2022-12-18T00:11:24;49.85;;;32.72;;
57730;SDS011;43570;47.476;19.040;2022-12-18T00:13:53;47.33;;;31.90;;
57730;SDS011;43570;47.476;19.040;2022-12-18T00:16:20;46.10;;;30.90;;
57730;SDS011;43570;47.476;19.040;2022-12-18T00:18:47;45.53;;;31.42;;
57730;SDS011;43570;47.476;19.040;2022-12-18T00:21:13;48.20;;;32.17;;
57730;SDS011;43570;47.476;19.040;2022-12-18T00:23:39;45.40;;;31.08;;
57730;SDS011;43570;47.476;19.040;2022-12-18T00:26:07;47.15;;;31.62;;
57730;SDS011;43570;47.476;19.040;2022-12-18T00:28:37;44.90;;;32.13;;
57730;SDS011;43570;47.476;19.040;2022-12-18T00:31:02;45.50;;;32.25;;
57730;SDS011;43570;47.476;19.040;2022-12-18T00:33:29;47.03;;;31.98;;
57730;SDS011;43570;47.476;19.040;2022-12-18T00:35:59;47.25;;;32.00;;
57730;SDS011;43570;47.476;19.040;2022-12-18T00:38:28;47.88;;;31.90;;
57730;SDS011;43570;47.476;19.040;2022-12-18T00:40:54;44.53;;;30.92;;
57730;SDS011;43570;47.476;19.040;2022-12-18T00:43:19;47.70;;;31.95;;
57730;SDS011;43570;47.476;19.040;2022-12-18T00:45:45;12.05;;;5.25;;
57730;SDS011;43570;47.476;19.040;2022-12-18T00:48:10;16.42;;;6.55;;
57730;SDS011;43570;47.476;19.040;2022-12-18T00:50:35;46.70;;;31.30;;
57730;SDS011;43570;47.476;19.040;2022-12-18T00:53:01;44.40;;;31.45;;
57730;SDS011;43570;47.476;19.040;2022-12-18T00:55:26;44.40;;;30.45;;
57730;SDS011;43570;47.476;19.040;2022-12-18T00:57:51;46.03;;;31.52;;
57730;SDS011;43570;47.476;19.040;2022-12-18T01:00:17;45.65;;;30.27;;
57730;SDS011;43570;47.476;19.040;2022-12-18T01:02:43;43.42;;;29.23;;
57730;SDS011;43570;47.476;19.040;2022-12-18T01:05:09;44.25;;;30.30;;
57730;SDS011;43570;47.476;19.040;2022-12-18T01:07:36;45.30;;;30.95;;
57730;SDS011;43570;47.476;19.040;2022-12-18T01:10:02;42.95;;;29.75;;
57730;SDS011;43570;47.476;19.040;2022-12-18T01:12:28;45.08;;;30.55;;
57730;SDS011;43570;47.476;19.040;2022-12-18T01:14:54;44.53;;;30.33;;
57730;SDS011;43570;47.476;19.040;2022-12-18T01:17:19;45.45;;;30.70;;
57730;SDS011;43570;47.476;19.040;2022-12-18T01:19:44;45.88;;;30.92;;
57730;SDS011;43570;47.476;19.040;2022-12-18T01:22:10;44.78;;;31.05;;
57730;SDS011;43570;47.476;19.040;2022-12-18T01:24:35;43.22;;;30.85;;
57730;SDS011;43570;47.476;19.040;2022-12-18T01:27:00;42.75;;;30.67;;
57730;SDS011;43570;47.476;19.040;2022-12-18T01:29:26;42.67;;;29.90;;
57730;SDS011;43570;47.476;19.040;2022-12-18T01:31:54;44.33;;;29.55;;
57730;SDS011;43570;47.476;19.040;2022-12-18T01:34:20;45.17;;;31.02;;
57730;SDS011;43570;47.476;19.040;2022-12-18T01:36:45;42.20;;;29.90;;
57730;SDS011;43570;47.476;19.040;2022-12-18T01:39:11;43.58;;;30.45;;
57730;SDS011;43570;47.476;19.040;2022-12-18T01:41:38;44.17;;;30.02;;
57730;SDS011;43570;47.476;19.040;2022-12-18T01:47:23;44.42;;;30.35;;
57730;SDS011;43570;47.476;19.040;2022-12-18T01:50:11;44.63;;;30.27;;
57730;SDS011;43570;47.476;19.040;2022-12-18T01:52:38;46.37;;;30.95;;
57730;SDS011;43570;47.476;19.040;2022-12-18T01:55:07;45.42;;;30.65;;
57730;SDS011;43570;47.476;19.040;2022-12-18T01:57:33;48.33;;;32.67;;
57730;SDS011;43570;47.476;19.040;2022-12-18T02:00:00;51.70;;;34.30;;
57730;SDS011;43570;47.476;19.040;2022-12-18T02:02:28;14.27;;;8.13;;
57730;SDS011;43570;47.476;19.040;2022-12-18T02:04:54;47.47;;;32.08;;
57730;SDS011;43570;47.476;19.040;2022-12-18T02:07:23;48.15;;;33.00;;
57730;SDS011;43570;47.476;19.040;2022-12-18T02:10:00;46.58;;;32.13;;
57730;SDS011;43570;47.476;19.040;2022-12-18T02:12:34;51.65;;;34.00;;
57730;SDS011;43570;47.476;19.040;2022-12-18T02:18:11;50.78;;;34.28;;
57730;SDS011;43570;47.476;19.040;2022-12-18T02:23:47;49.65;;;33.78;;
57730;SDS011;43570;47.476;19.040;2022-12-18T02:26:28;50.70;;;33.35;;
57730;SDS011;43570;47.476;19.040;2022-12-18T02:29:01;49.90;;;33.50;;
57730;SDS011;43570;47.476;19.040;2022-12-18T02:31:30;49.72;;;32.45;;
57730;SDS011;43570;47.476;19.040;2022-12-18T02:34:00;51.42;;;34.45;;
57730;SDS011;43570;47.476;19.040;2022-12-18T02:36:28;49.55;;;34.50;;
57730;SDS011;43570;47.476;19.040;2022-12-18T02:38:54;51.95;;;34.35;;
57730;SDS011;43570;47.476;19.040;2022-12-18T02:41:20;49.75;;;34.60;;
57730;SDS011;43570;47.476;19.040;2022-12-18T02:43:52;50.28;;;33.90;;
57730;SDS011;43570;47.476;19.040;2022-12-18T02:49:31;52.03;;;34.38;;
57730;SDS011;43570;47.476;19.040;2022-12-18T02:52:05;50.97;;;35.13;;
57730;SDS011;43570;47.476;19.040;2022-12-18T03:00:10;51.10;;;34.97;;
57730;SDS011;43570;47.476;19.040;2022-12-18T03:02:41;50.58;;;34.28;;
57730;SDS011;43570;47.476;19.040;2022-12-18T03:05:26;50.42;;;34.80;;
57730;SDS011;43570;47.476;19.040;2022-12-18T03:07:59;51.67;;;34.40;;
57730;SDS011;43570;47.476;19.040;2022-12-18T03:10:29;52.03;;;34.58;;
57730;SDS011;43570;47.476;19.040;2022-12-18T03:12:59;53.33;;;35.13;;
57730;SDS011;43570;47.476;19.040;2022-12-18T03:15:30;51.45;;;34.00;;
57730;SDS011;43570;47.476;19.040;2022-12-18T03:18:01;48.33;;;34.55;;
57730;SDS011;43570;47.476;19.040;2022-12-18T03:20:29;54.55;;;34.40;;
57730;SDS011;43570;47.476;19.040;2022-12-18T03:22:58;52.58;;;34.58;;
57730;SDS011;43570;47.476;19.040;2022-12-18T03:25:26;52.20;;;34.10;;
57730;SDS011;43570;47.476;19.040;2022-12-18T03:27:54;53.87;;;35.45;;
57730;SDS011;43570;47.476;19.040;2022-12-18T03:30:21;51.58;;;34.78;;
57730;SDS011;43570;47.476;19.040;2022-12-18T03:35:30;50.90;;;34.45;;
57730;SDS011;43570;47.476;19.040;2022-12-18T03:40:26;55.40;;;34.95;;
57730;SDS011;43570;47.476;19.040;2022-12-18T03:42:58;52.80;;;34.35;;
57730;SDS011;43570;47.476;19.040;2022-12-18T03:45:34;53.47;;;35.00;;
57730;SDS011;43570;47.476;19.040;2022-12-18T03:48:03;58.72;;;37.30;;
57730;SDS011;43570;47.476;19.040;2022-12-18T03:50:47;55.12;;;37.00;;
57730;SDS011;43570;47.476;19.040;2022-12-18T03:55:53;54.42;;;35.67;;
57730;SDS011;43570;47.476;19.040;2022-12-18T03:58:20;55.03;;;36.42;;
57730;SDS011;43570;47.476;19.040;2022-12-18T04:00:48;58.65;;;36.85;;
57730;SDS011;43570;47.476;19.040;2022-12-18T04:03:15;53.15;;;35.35;;
57730;SDS011;43570;47.476;19.040;2022-12-18T04:05:43;56.85;;;37.33;;
57730;SDS011;43570;47.476;19.040;2022-12-18T04:08:09;53.83;;;36.10;;
57730;SDS011;43570;47.476;19.040;2022-12-18T04:10:34;55.88;;;36.20;;
57730;SDS011;43570;47.476;19.040;2022-12-18T04:13:00;56.10;;;37.03;;
57730;SDS011;43570;47.476;19.040;2022-12-18T04:15:26;53.45;;;35.38;;
57730;SDS011;43570;47.476;19.040;2022-12-18T04:17:51;51.78;;;36.13;;
57730;SDS011;43570;47.476;19.040;2022-12-18T04:20:16;52.75;;;35.78;;
57730;SDS011;43570;47.476;19.040;2022-12-18T04:22:42;54.63;;;36.90;;
57730;SDS011;43570;47.476;19.040;2022-12-18T04:25:08;17.83;;;8.00;;
57730;SDS011;43570;47.476;19.040;2022-12-18T04:27:34;18.73;;;8.68;;
57730;SDS011;43570;47.476;19.040;2022-12-18T04:29:59;54.30;;;36.72;;
57730;SDS011;43570;47.476;19.040;2022-12-18T04:32:25;52.30;;;35.90;;
57730;SDS011;43570;47.476;19.040;2022-12-18T04:34:50;52.22;;;35.85;;
57730;SDS011;43570;47.476;19.040;2022-12-18T04:37:15;52.97;;;34.67;;
57730;SDS011;43570;47.476;19.040;2022-12-18T04:39:41;49.63;;;33.20;;
57730;SDS011;43570;47.476;19.040;2022-12-18T04:42:06;49.97;;;33.63;;
57730;SDS011;43570;47.476;19.040;2022-12-18T04:44:31;53.25;;;35.03;;
57730;SDS011;43570;47.476;19.040;2022-12-18T04:46:57;52.65;;;33.45;;
57730;SDS011;43570;47.476;19.040;2022-12-18T04:49:22;49.45;;;34.40;;
57730;SDS011;43570;47.476;19.040;2022-12-18T04:51:48;50.33;;;34.10;;
57730;SDS011;43570;47.476;19.040;2022-12-18T04:54:13;49.85;;;33.72;;
57730;SDS011;43570;47.476;19.040;2022-12-18T04:56:38;49.65;;;32.97;;
57730;SDS011;43570;47.476;19.040;2022-12-18T04:59:04;53.13;;;34.90;;
57730;SDS011;43570;47.476;19.040;2022-12-18T05:01:30;53.28;;;34.83;;
57730;SDS011;43570;47.476;19.040;2022-12-18T05:03:55;16.77;;;8.52;;
57730;SDS011;43570;47.476;19.040;2022-12-18T05:06:20;54.58;;;34.95;;
57730;SDS011;43570;47.476;19.040;2022-12-18T05:08:46;54.15;;;35.22;;
57730;SDS011;43570;47.476;19.040;2022-12-18T05:11:12;54.03;;;35.17;;
57730;SDS011;43570;47.476;19.040;2022-12-18T05:13:42;50.90;;;33.70;;
57730;SDS011;43570;47.476;19.040;2022-12-18T05:16:09;53.90;;;35.90;;
57730;SDS011;43570;47.476;19.040;2022-12-18T05:18:35;51.47;;;35.70;;
57730;SDS011;43570;47.476;19.040;2022-12-18T05:21:00;51.60;;;34.28;;
57730;SDS011;43570;47.476;19.040;2022-12-18T05:23:26;22.30;;;8.32;;
57730;SDS011;43570;47.476;19.040;2022-12-18T05:25:52;52.30;;;35.63;;
57730;SDS011;43570;47.476;19.040;2022-12-18T05:28:19;52.97;;;36.05;;
57730;SDS011;43570;47.476;19.040;2022-12-18T05:30:52;54.88;;;37.05;;
57730;SDS011;43570;47.476;19.040;2022-12-18T05:33:18;52.78;;;36.10;;
57730;SDS011;43570;47.476;19.040;2022-12-18T05:35:49;52.47;;;35.13;;
57730;SDS011;43570;47.476;19.040;2022-12-18T05:38:19;55.42;;;35.85;;
57730;SDS011;43570;47.476;19.040;2022-12-18T05:40:51;55.73;;;37.17;;
57730;SDS011;43570;47.476;19.040;2022-12-18T05:43:17;54.65;;;35.67;;
57730;SDS011;43570;47.476;19.040;2022-12-18T05:45:44;54.85;;;37.33;;
57730;SDS011;43570;47.476;19.040;2022-12-18T05:48:09;52.25;;;35.58;;
57730;SDS011;43570;47.476;19.040;2022-12-18T05:50:38;53.00;;;35.85;;
57730;SDS011;43570;47.476;19.040;2022-12-18T05:53:06;54.33;;;35.40;;
57730;SDS011;43570;47.476;19.040;2022-12-18T05:55:35;53.15;;;35.30;;
57730;SDS011;43570;47.476;19.040;2022-12-18T05:58:01;52.20;;;34.45;;
57730;SDS011;43570;47.476;19.040;2022-12-18T06:00:28;53.10;;;34.33;;
57730;SDS011;43570;47.476;19.040;2022-12-18T06:02:53;52.30;;;34.95;;
57730;SDS011;43570;47.476;19.040;2022-12-18T06:05:19;50.12;;;34.65;;
57730;SDS011;43570;47.476;19.040;2022-12-18T06:07:44;53.42;;;34.55;;
57730;SDS011;43570;47.476;19.040;2022-12-18T06:10:09;51.17;;;34.83;;
57730;SDS011;43570;47.476;19.040;2022-12-18T06:12:35;53.83;;;36.35;;
57730;SDS011;43570;47.476;19.040;2022-12-18T06:15:01;53.22;;;34.58;;
57730;SDS011;43570;47.476;19.040;2022-12-18T06:17:27;55.00;;;36.38;;
57730;SDS011;43570;47.476;19.040;2022-12-18T06:19:54;21.52;;;9.30;;
57730;SDS011;43570;47.476;19.040;2022-12-18T06:22:20;53.25;;;36.90;;
57730;SDS011;43570;47.476;19.040;2022-12-18T06:24:45;53.72;;;37.25;;
57730;SDS011;43570;47.476;19.040;2022-12-18T06:27:10;52.17;;;35.90;;
57730;SDS011;43570;47.476;19.040;2022-12-18T06:29:36;49.58;;;33.75;;
57730;SDS011;43570;47.476;19.040;2022-12-18T06:32:01;49.10;;;34.67;;
57730;SDS011;43570;47.476;19.040;2022-12-18T06:34:26;54.17;;;36.50;;
57730;SDS011;43570;47.476;19.040;2022-12-18T06:36:52;54.97;;;36.60;;
57730;SDS011;43570;47.476;19.040;2022-12-18T06:39:17;52.20;;;34.92;;
57730;SDS011;43570;47.476;19.040;2022-12-18T06:41:42;51.97;;;35.63;;
57730;SDS011;43570;47.476;19.040;2022-12-18T06:44:08;20.23;;;9.05;;
57730;SDS011;43570;47.476;19.040;2022-12-18T06:46:33;53.97;;;36.60;;
57730;SDS011;43570;47.476;19.040;2022-12-18T06:48:58;52.80;;;34.63;;
57730;SDS011;43570;47.476;19.040;2022-12-18T06:51:24;50.70;;;34.42;;
57730;SDS011;43570;47.476;19.040;2022-12-18T06:53:50;55.15;;;35.60;;
57730;SDS011;43570;47.476;19.040;2022-12-18T06:56:15;58.03;;;40.53;;
57730;SDS011;43570;47.476;19.040;2022-12-18T06:58:41;56.10;;;39.20;;
57730;SDS011;43570;47.476;19.040;2022-12-18T07:01:07;56.33;;;36.88;;
57730;SDS011;43570;47.476;19.040;2022-12-18T07:03:34;55.63;;;35.30;;
57730;SDS011;43570;47.476;19.040;2022-12-18T07:06:00;50.67;;;35.55;;
57730;SDS011;43570;47.476;19.040;2022-12-18T07:08:26;49.35;;;33.97;;
57730;SDS011;43570;47.476;19.040;2022-12-18T07:10:51;52.10;;;34.42;;
57730;SDS011;43570;47.476;19.040;2022-12-18T07:13:17;48.03;;;34.30;;
57730;SDS011;43570;47.476;19.040;2022-12-18T07:15:43;49.35;;;33.03;;
57730;SDS011;43570;47.476;19.040;2022-12-18T07:18:09;48.60;;;32.85;;
57730;SDS011;43570;47.476;19.040;2022-12-18T07:20:34;48.05;;;32.63;;
57730;SDS011;43570;47.476;19.040;2022-12-18T07:23:02;46.42;;;30.62;;
57730;SDS011;43570;47.476;19.040;2022-12-18T07:25:28;44.50;;;31.17;;
57730;SDS011;43570;47.476;19.040;2022-12-18T07:27:53;44.53;;;31.62;;
57730;SDS011;43570;47.476;19.040;2022-12-18T07:30:19;47.78;;;32.33;;
57730;SDS011;43570;47.476;19.040;2022-12-18T07:32:44;49.70;;;32.92;;
57730;SDS011;43570;47.476;19.040;2022-12-18T07:35:10;46.05;;;32.92;;
57730;SDS011;43570;47.476;19.040;2022-12-18T07:37:35;46.90;;;32.47;;
57730;SDS011;43570;47.476;19.040;2022-12-18T07:40:00;48.90;;;33.85;;
57730;SDS011;43570;47.476;19.040;2022-12-18T07:42:26;50.92;;;34.95;;
57730;SDS011;43570;47.476;19.040;2022-12-18T07:44:58;51.33;;;34.92;;
57730;SDS011;43570;47.476;19.040;2022-12-18T07:47:23;49.65;;;33.22;;
57730;SDS011;43570;47.476;19.040;2022-12-18T07:49:49;47.28;;;32.05;;
57730;SDS011;43570;47.476;19.040;2022-12-18T07:52:15;43.97;;;31.27;;
57730;SDS011;43570;47.476;19.040;2022-12-18T07:54:40;43.20;;;30.37;;
57730;SDS011;43570;47.476;19.040;2022-12-18T07:57:06;42.55;;;31.02;;
57730;SDS011;43570;47.476;19.040;2022-12-18T07:59:32;43.20;;;31.00;;
57730;SDS011;43570;47.476;19.040;2022-12-18T08:02:06;43.97;;;30.42;;
57730;SDS011;43570;47.476;19.040;2022-12-18T08:04:32;42.75;;;29.70;;
57730;SDS011;43570;47.476;19.040;2022-12-18T08:07:00;41.85;;;30.08;;
57730;SDS011;43570;47.476;19.040;2022-12-18T08:09:25;42.28;;;29.25;;
57730;SDS011;43570;47.476;19.040;2022-12-18T08:11:51;41.97;;;29.80;;
57730;SDS011;43570;47.476;19.040;2022-12-18T08:14:16;42.80;;;30.42;;
57730;SDS011;43570;47.476;19.040;2022-12-18T08:16:42;43.80;;;30.80;;
57730;SDS011;43570;47.476;19.040;2022-12-18T08:19:07;44.17;;;31.30;;
57730;SDS011;43570;47.476;19.040;2022-12-18T08:21:32;42.53;;;30.55;;
57730;SDS011;43570;47.476;19.040;2022-12-18T08:23:58;41.37;;;29.73;;
57730;SDS011;43570;47.476;19.040;2022-12-18T08:26:26;40.92;;;30.85;;
57730;SDS011;43570;47.476;19.040;2022-12-18T08:28:53;43.67;;;31.52;;
57730;SDS011;43570;47.476;19.040;2022-12-18T08:31:19;42.50;;;30.70;;
57730;SDS011;43570;47.476;19.040;2022-12-18T08:33:45;42.78;;;30.42;;
57730;SDS011;43570;47.476;19.040;2022-12-18T08:36:10;43.25;;;31.25;;
57730;SDS011;43570;47.476;19.040;2022-12-18T08:38:36;43.65;;;30.55;;
57730;SDS011;43570;47.476;19.040;2022-12-18T08:41:06;41.03;;;30.65;;
57730;SDS011;43570;47.476;19.040;2022-12-18T08:43:32;41.58;;;30.73;;
57730;SDS011;43570;47.476;19.040;2022-12-18T08:46:17;44.92;;;31.77;;
57730;SDS011;43570;47.476;19.040;2022-12-18T08:48:43;46.33;;;32.60;;
57730;SDS011;43570;47.476;19.040;2022-12-18T08:51:08;45.35;;;32.05;;
57730;SDS011;43570;47.476;19.040;2022-12-18T08:53:34;42.33;;;30.50;;
57730;SDS011;43570;47.476;19.040;2022-12-18T08:56:00;44.80;;;31.90;;
57730;SDS011;43570;47.476;19.040;2022-12-18T08:58:26;45.38;;;33.03;;
57730;SDS011;43570;47.476;19.040;2022-12-18T09:00:51;42.88;;;32.55;;
57730;SDS011;43570;47.476;19.040;2022-12-18T09:03:17;45.17;;;32.80;;
57730;SDS011;43570;47.476;19.040;2022-12-18T09:05:45;45.05;;;31.67;;
57730;SDS011;43570;47.476;19.040;2022-12-18T09:08:11;43.53;;;32.08;;
57730;SDS011;43570;47.476;19.040;2022-12-18T09:10:47;45.53;;;32.70;;
57730;SDS011;43570;47.476;19.040;2022-12-18T09:13:14;44.95;;;32.05;;
57730;SDS011;43570;47.476;19.040;2022-12-18T09:15:47;67.25;;;52.72;;
57730;SDS011;43570;47.476;19.040;2022-12-18T09:18:14;46.75;;;34.17;;
57730;SDS011;43570;47.476;19.040;2022-12-18T09:20:41;45.78;;;34.40;;
57730;SDS011;43570;47.476;19.040;2022-12-18T09:23:07;45.53;;;31.52;;
57730;SDS011;43570;47.476;19.040;2022-12-18T09:25:33;41.30;;;31.58;;
57730;SDS011;43570;47.476;19.040;2022-12-18T09:28:00;45.30;;;32.42;;
57730;SDS011;43570;47.476;19.040;2022-12-18T09:30:47;44.07;;;32.77;;
57730;SDS011;43570;47.476;19.040;2022-12-18T09:33:13;41.30;;;31.40;;
57730;SDS011;43570;47.476;19.040;2022-12-18T09:35:40;41.78;;;31.65;;
57730;SDS011;43570;47.476;19.040;2022-12-18T09:38:07;38.90;;;30.55;;
57730;SDS011;43570;47.476;19.040;2022-12-18T09:40:44;39.85;;;30.75;;
57730;SDS011;43570;47.476;19.040;2022-12-18T09:43:18;39.45;;;31.30;;
57730;SDS011;43570;47.476;19.040;2022-12-18T09:45:50;44.85;;;33.90;;
57730;SDS011;43570;47.476;19.040;2022-12-18T09:48:27;40.38;;;31.90;;
57730;SDS011;43570;47.476;19.040;2022-12-18T09:50:57;41.15;;;31.27;;
57730;SDS011;43570;47.476;19.040;2022-12-18T09:53:26;41.22;;;31.73;;
57730;SDS011;43570;47.476;19.040;2022-12-18T09:55:53;42.22;;;31.27;;
57730;SDS011;43570;47.476;19.040;2022-12-18T10:00:58;39.53;;;30.75;;
57730;SDS011;43570;47.476;19.040;2022-12-18T10:03:23;39.15;;;31.25;;
57730;SDS011;43570;47.476;19.040;2022-12-18T10:05:59;38.08;;;29.73;;
57730;SDS011;43570;47.476;19.040;2022-12-18T10:11:32;38.63;;;29.90;;
57730;SDS011;43570;47.476;19.040;2022-12-18T10:24:55;37.13;;;29.05;;
57730;SDS011;43570;47.476;19.040;2022-12-18T10:27:35;37.97;;;29.58;;
57730;SDS011;43570;47.476;19.040;2022-12-18T10:30:00;40.05;;;30.27;;
57730;SDS011;43570;47.476;19.040;2022-12-18T10:32:29;44.92;;;29.75;;
57730;SDS011;43570;47.476;19.040;2022-12-18T10:34:55;37.45;;;29.25;;
57730;SDS011;43570;47.476;19.040;2022-12-18T10:37:24;37.05;;;29.85;;
57730;SDS011;43570;47.476;19.040;2022-12-18T10:42:38;39.40;;;30.00;;
57730;SDS011;43570;47.476;19.040;2022-12-18T10:47:41;39.28;;;30.37;;
57730;SDS011;43570;47.476;19.040;2022-12-18T10:50:15;39.15;;;30.02;;
57730;SDS011;43570;47.476;19.040;2022-12-18T10:52:44;39.63;;;30.85;;
57730;SDS011;43570;47.476;19.040;2022-12-18T10:55:19;41.30;;;30.33;;
57730;SDS011;43570;47.476;19.040;2022-12-18T10:57:44;40.35;;;31.60;;
57730;SDS011;43570;47.476;19.040;2022-12-18T11:02:47;38.55;;;29.35;;
57730;SDS011;43570;47.476;19.040;2022-12-18T11:05:26;43.15;;;33.15;;
57730;SDS011;43570;47.476;19.040;2022-12-18T11:07:54;37.42;;;29.02;;
57730;SDS011;43570;47.476;19.040;2022-12-18T11:10:20;35.97;;;28.98;;
57730;SDS011;43570;47.476;19.040;2022-12-18T11:12:47;36.20;;;29.15;;
57730;SDS011;43570;47.476;19.040;2022-12-18T11:15:19;36.47;;;28.27;;
57730;SDS011;43570;47.476;19.040;2022-12-18T11:17:46;36.17;;;28.15;;
57730;SDS011;43570;47.476;19.040;2022-12-18T11:23:01;37.80;;;28.77;;
57730;SDS011;43570;47.476;19.040;2022-12-18T11:25:28;40.22;;;30.12;;
57730;SDS011;43570;47.476;19.040;2022-12-18T11:27:55;34.50;;;27.80;;
57730;SDS011;43570;47.476;19.040;2022-12-18T11:30:29;36.22;;;28.38;;
57730;SDS011;43570;47.476;19.040;2022-12-18T11:35:38;36.97;;;27.92;;
57730;SDS011;43570;47.476;19.040;2022-12-18T11:38:10;36.97;;;27.42;;
57730;SDS011;43570;47.476;19.040;2022-12-18T11:41:02;36.08;;;28.77;;
57730;SDS011;43570;47.476;19.040;2022-12-18T11:43:43;35.90;;;27.70;;
57730;SDS011;43570;47.476;19.040;2022-12-18T11:46:23;36.75;;;27.45;;
57730;SDS011;43570;47.476;19.040;2022-12-18T11:51:26;36.90;;;29.25;;
57730;SDS011;43570;47.476;19.040;2022-12-18T11:53:56;35.28;;;27.17;;
57730;SDS011;43570;47.476;19.040;2022-12-18T11:56:39;38.53;;;27.67;;
57730;SDS011;43570;47.476;19.040;2022-12-18T11:59:25;33.17;;;26.67;;
57730;SDS011;43570;47.476;19.040;2022-12-18T12:02:46;31.87;;;24.55;;
57730;SDS011;43570;47.476;19.040;2022-12-18T12:04:56;34.17;;;25.35;;
57730;SDS011;43570;47.476;19.040;2022-12-18T12:07:49;34.03;;;26.60;;
57730;SDS011;43570;47.476;19.040;2022-12-18T12:13:16;32.78;;;26.27;;
57730;SDS011;43570;47.476;19.040;2022-12-18T12:21:28;32.42;;;25.83;;
57730;SDS011;43570;47.476;19.040;2022-12-18T12:40:12;40.97;;;30.77;;
57730;SDS011;43570;47.476;19.040;2022-12-18T12:42:42;39.25;;;32.42;;
57730;SDS011;43570;47.476;19.040;2022-12-18T12:45:34;38.65;;;30.42;;
57730;SDS011;43570;47.476;19.040;2022-12-18T12:48:02;39.78;;;30.90;;
57730;SDS011;43570;47.476;19.040;2022-12-18T12:50:31;42.83;;;32.20;;
57730;SDS011;43570;47.476;19.040;2022-12-18T12:52:58;40.08;;;31.92;;
57730;SDS011;43570;47.476;19.040;2022-12-18T12:55:26;43.47;;;32.70;;
57730;SDS011;43570;47.476;19.040;2022-12-18T12:58:05;44.15;;;33.90;;
57730;SDS011;43570;47.476;19.040;2022-12-18T13:00:39;44.55;;;34.22;;
57730;SDS011;43570;47.476;19.040;2022-12-18T13:03:15;45.97;;;34.83;;
57730;SDS011;43570;47.476;19.040;2022-12-18T13:05:51;45.58;;;34.38;;
57730;SDS011;43570;47.476;19.040;2022-12-18T13:08:24;44.90;;;35.22;;
57730;SDS011;43570;47.476;19.040;2022-12-18T13:10:51;49.60;;;35.33;;
57730;SDS011;43570;47.476;19.040;2022-12-18T13:13:47;50.63;;;37.50;;
57730;SDS011;43570;47.476;19.040;2022-12-18T13:16:13;53.00;;;38.50;;
57730;SDS011;43570;47.476;19.040;2022-12-18T13:18:48;50.25;;;37.38;;
57730;SDS011;43570;47.476;19.040;2022-12-18T13:21:22;49.08;;;37.42;;
57730;SDS011;43570;47.476;19.040;2022-12-18T13:23:50;51.58;;;38.67;;
57730;SDS011;43570;47.476;19.040;2022-12-18T13:33:44;52.47;;;41.25;;
57730;SDS011;43570;47.476;19.040;2022-12-18T13:39:20;51.97;;;41.28;;
57730;SDS011;43570;47.476;19.040;2022-12-18T13:42:38;53.30;;;41.57;;
57730;SDS011;43570;47.476;19.040;2022-12-18T13:45:38;53.17;;;41.37;;
57730;SDS011;43570;47.476;19.040;2022-12-18T13:48:18;53.78;;;42.28;;
57730;SDS011;43570;47.476;19.040;2022-12-18T13:50:53;52.62;;;41.67;;
57730;SDS011;43570;47.476;19.040;2022-12-18T13:54:00;57.00;;;42.95;;
57730;SDS011;43570;47.476;19.040;2022-12-18T13:56:25;51.30;;;39.47;;
57730;SDS011;43570;47.476;19.040;2022-12-18T14:01:58;55.70;;;41.75;;
57730;SDS011;43570;47.476;19.040;2022-12-18T14:04:26;57.25;;;42.47;;
57730;SDS011;43570;47.476;19.040;2022-12-18T14:06:55;55.20;;;41.45;;
57730;SDS011;43570;47.476;19.040;2022-12-18T14:09:27;59.72;;;41.85;;
57730;SDS011;43570;47.476;19.040;2022-12-18T14:11:54;56.72;;;42.65;;
57730;SDS011;43570;47.476;19.040;2022-12-18T14:14:47;56.15;;;42.17;;
57730;SDS011;43570;47.476;19.040;2022-12-18T14:17:14;61.45;;;41.72;;
57730;SDS011;43570;47.476;19.040;2022-12-18T14:19:46;54.60;;;41.45;;
57730;SDS011;43570;47.476;19.040;2022-12-18T14:22:17;58.63;;;42.92;;
57730;SDS011;43570;47.476;19.040;2022-12-18T14:24:44;58.17;;;41.03;;
57730;SDS011;43570;47.476;19.040;2022-12-18T14:27:28;56.78;;;39.70;;
57730;SDS011;43570;47.476;19.040;2022-12-18T14:29:53;53.47;;;38.95;;
57730;SDS011;43570;47.476;19.040;2022-12-18T14:32:19;52.42;;;39.17;;
57730;SDS011;43570;47.476;19.040;2022-12-18T14:34:46;51.78;;;38.10;;
57730;SDS011;43570;47.476;19.040;2022-12-18T14:37:17;53.90;;;38.42;;
57730;SDS011;43570;47.476;19.040;2022-12-18T14:42:25;55.85;;;40.12;;
57730;SDS011;43570;47.476;19.040;2022-12-18T14:45:31;57.95;;;41.35;;
57730;SDS011;43570;47.476;19.040;2022-12-18T14:47:56;57.75;;;42.00;;
57730;SDS011;43570;47.476;19.040;2022-12-18T14:50:22;59.53;;;42.60;;
57730;SDS011;43570;47.476;19.040;2022-12-18T14:52:48;60.28;;;41.97;;
57730;SDS011;43570;47.476;19.040;2022-12-18T14:55:14;57.03;;;43.95;;
57730;SDS011;43570;47.476;19.040;2022-12-18T14:57:41;59.42;;;42.45;;
57730;SDS011;43570;47.476;19.040;2022-12-18T15:00:26;61.97;;;43.47;;
57730;SDS011;43570;47.476;19.040;2022-12-18T15:02:55;59.95;;;43.75;;
57730;SDS011;43570;47.476;19.040;2022-12-18T15:05:28;61.08;;;44.35;;
57730;SDS011;43570;47.476;19.040;2022-12-18T15:07:56;60.28;;;42.28;;
57730;SDS011;43570;47.476;19.040;2022-12-18T15:10:26;58.85;;;42.80;;
57730;SDS011;43570;47.476;19.040;2022-12-18T15:20:40;58.67;;;42.10;;
57730;SDS011;43570;47.476;19.040;2022-12-18T15:23:17;59.67;;;41.88;;
57730;SDS011;43570;47.476;19.040;2022-12-18T15:25:47;61.75;;;44.05;;
57730;SDS011;43570;47.476;19.040;2022-12-18T15:28:24;62.92;;;43.95;;
57730;SDS011;43570;47.476;19.040;2022-12-18T15:30:59;59.80;;;42.50;;
57730;SDS011;43570;47.476;19.040;2022-12-18T15:33:29;61.17;;;43.70;;
57730;SDS011;43570;47.476;19.040;2022-12-18T15:36:03;65.75;;;45.47;;
57730;SDS011;43570;47.476;19.040;2022-12-18T15:38:32;69.03;;;44.92;;
57730;SDS011;43570;47.476;19.040;2022-12-18T15:40:58;68.00;;;47.62;;
57730;SDS011;43570;47.476;19.040;2022-12-18T15:43:24;63.97;;;46.30;;
57730;SDS011;43570;47.476;19.040;2022-12-18T15:45:59;68.72;;;46.67;;
57730;SDS011;43570;47.476;19.040;2022-12-18T15:48:26;66.25;;;46.37;;
57730;SDS011;43570;47.476;19.040;2022-12-18T15:50:51;64.18;;;45.85;;
57730;SDS011;43570;47.476;19.040;2022-12-18T15:53:18;63.17;;;45.70;;
57730;SDS011;43570;47.476;19.040;2022-12-18T15:55:43;67.50;;;46.53;;
57730;SDS011;43570;47.476;19.040;2022-12-18T15:58:27;67.00;;;45.78;;
57730;SDS011;43570;47.476;19.040;2022-12-18T16:00:53;65.57;;;46.25;;
57730;SDS011;43570;47.476;19.040;2022-12-18T16:03:19;66.65;;;47.75;;
57730;SDS011;43570;47.476;19.040;2022-12-18T16:05:44;68.93;;;47.75;;
57730;SDS011;43570;47.476;19.040;2022-12-18T16:08:09;63.47;;;45.15;;